createdAt,value
2016-11-08T00:00:37.250Z,68.47
2016-11-08T00:05:37.199Z,68.47
2016-11-08T00:10:37.143Z,68.18
2016-11-08T00:15:37.091Z,68.47
2016-11-08T00:20:37.032Z,68.47
2016-11-08T00:25:36.981Z,68.08
2016-11-08T00:30:36.921Z,68.47
2016-11-08T00:35:36.862Z,68.91
2016-11-08T00:40:37.028Z,68.15
2016-11-08T00:45:36.758Z,68.82
2016-11-08T00:50:36.698Z,68.91
2016-11-08T00:55:36.649Z,68.63
2016-11-08T01:00:36.584Z,69.01
2016-11-08T01:05:36.522Z,68.82
2016-11-08T01:10:36.466Z,68.82
2016-11-08T01:15:36.401Z,68.24
2016-11-08T01:20:36.348Z,68.59
2016-11-08T01:25:36.288Z,68.5
2016-11-08T01:30:36.256Z,68.12
2016-11-08T01:35:36.167Z,68.5
2016-11-08T01:40:36.108Z,68.4
2016-11-08T01:45:36.051Z,68.12
2016-11-08T01:50:35.997Z,67.83
2016-11-08T01:55:35.933Z,68.02
2016-11-08T02:00:35.876Z,67.92
2016-11-08T02:05:35.816Z,67.92
2016-11-08T02:10:35.758Z,68.21
2016-11-08T02:15:35.694Z,68.21
2016-11-08T02:20:35.636Z,68.02
2016-11-08T02:25:35.578Z,67.92
2016-11-08T02:30:35.518Z,67.92
2016-11-08T02:35:35.152Z,67.35
2016-11-08T02:40:35.400Z,67.92
2016-11-08T02:45:35.341Z,67.73
2016-11-08T02:50:35.321Z,67.54
2016-11-08T02:55:35.221Z,67.63
2016-11-08T03:00:35.159Z,67.25
2016-11-08T03:05:35.103Z,67.32
2016-11-08T03:10:35.037Z,67.12
2016-11-08T03:15:34.977Z,67.5
2016-11-08T03:20:34.920Z,67.5
2016-11-08T03:25:34.859Z,67.5
2016-11-08T03:30:34.803Z,67.32
2016-11-08T03:35:34.741Z,67.5
2016-11-08T03:40:34.681Z,67.12
2016-11-08T03:45:34.621Z,67.02
2016-11-08T03:50:34.562Z,67.22
2016-11-08T03:55:34.503Z,66.74
2016-11-08T04:00:34.135Z,66.74
2016-11-08T04:05:34.383Z,66.74
2016-11-08T04:10:34.315Z,66.83
2016-11-08T04:15:34.264Z,66.45
2016-11-08T04:20:34.197Z,66.64
2016-11-08T04:25:34.137Z,66.55
2016-11-08T04:30:34.071Z,66.51
2016-11-08T04:35:34.011Z,66.61
2016-11-08T04:40:33.951Z,66.74
2016-11-08T04:45:33.891Z,66.71
2016-11-08T04:50:33.527Z,66.71
2016-11-08T04:55:33.770Z,66.89
2016-11-08T05:00:33.706Z,66.89
2016-11-08T05:05:33.642Z,66.42
2016-11-08T05:10:33.593Z,66.51
2016-11-08T05:15:33.522Z,66.89
2016-11-08T05:20:33.462Z,66.61
2016-11-08T05:25:33.398Z,66.32
2016-11-08T05:30:33.338Z,66.35
2016-11-08T05:35:33.268Z,66.26
2016-11-08T05:40:33.206Z,65.01
2016-11-08T05:45:33.150Z,65.14
2016-11-08T05:50:32.778Z,65.91
2016-11-08T05:55:33.022Z,64.31
2016-11-08T06:00:32.962Z,63.83
2016-11-08T06:05:32.903Z,63.96
2016-11-08T06:10:32.847Z,63.57
2016-11-08T06:15:32.789Z,63.28
2016-11-08T06:20:32.729Z,62.9
2016-11-08T06:25:32.672Z,62.64
2016-11-08T06:30:32.614Z,63.7
2016-11-08T06:35:32.262Z,63.02
2016-11-08T06:40:32.504Z,62.55
2016-11-08T06:45:32.447Z,62.93
2016-11-08T06:50:32.382Z,62.74
2016-11-08T06:55:32.024Z,63.02
2016-11-08T07:00:32.276Z,62.45
2016-11-08T07:05:32.210Z,61.97
2016-11-08T07:10:32.154Z,63.02
2016-11-08T07:15:31.797Z,63.12
2016-11-08T07:20:32.046Z,64.02
2016-11-08T07:25:31.988Z,64.22
2016-11-08T07:30:31.935Z,64.31
2016-11-08T07:35:31.878Z,64.79
2016-11-08T07:40:31.820Z,64.66
2016-11-08T07:45:31.766Z,64.37
2016-11-08T07:50:31.717Z,64.85
2016-11-08T07:55:31.658Z,65.23
2016-11-08T08:00:31.599Z,64.95
2016-11-08T08:05:31.235Z,65.33
2016-11-08T08:10:31.490Z,65.43
2016-11-08T08:15:31.429Z,66
2016-11-08T08:20:31.068Z,66.49
2016-11-08T08:25:31.308Z,66.49
2016-11-08T08:30:31.296Z,66.58
2016-11-08T08:35:31.194Z,66.87
2016-11-08T08:40:31.130Z,66.68
2016-11-08T08:45:31.075Z,66.68
2016-11-08T08:50:31.021Z,67.07
2016-11-08T08:55:30.957Z,66.68
2016-11-08T09:00:30.598Z,67.35
2016-11-08T09:05:30.840Z,67.45
2016-11-08T09:10:30.483Z,67.54
2016-11-08T09:15:30.739Z,67.64
2016-11-08T09:20:30.671Z,67.93
2016-11-08T09:25:30.617Z,67.83
2016-11-08T09:30:30.558Z,68.12
2016-11-08T09:35:30.198Z,68.06
2016-11-08T09:40:30.445Z,68.25
2016-11-08T09:45:30.391Z,68.25
2016-11-08T09:50:30.029Z,68.06
2016-11-08T09:55:29.973Z,68.35
2016-11-08T10:00:29.921Z,68.25
2016-11-08T10:05:30.173Z,68.63
2016-11-08T10:10:30.119Z,68.83
2016-11-08T10:15:30.061Z,68.73
2016-11-08T10:20:30.004Z,68.35
2016-11-08T10:25:29.946Z,68.83
2016-11-08T10:30:29.892Z,68.44
2016-11-08T10:35:29.834Z,68.73
2016-11-08T10:40:29.781Z,68.63
2016-11-08T10:45:29.723Z,68.73
2016-11-08T10:50:29.669Z,68.63
2016-11-08T10:55:29.611Z,68.54
2016-11-08T11:00:29.556Z,68.6
2016-11-08T11:05:29.493Z,68.89
2016-11-08T11:10:29.134Z,68.7
2016-11-08T11:15:29.079Z,68.51
2016-11-08T11:20:29.324Z,68.98
2016-11-08T11:25:28.962Z,68.98
2016-11-08T11:30:29.212Z,68.79
2016-11-08T11:35:28.850Z,68.79
2016-11-08T11:40:29.099Z,68.6
2016-11-08T11:45:28.738Z,68.6
2016-11-08T11:50:28.987Z,68.41
2016-11-08T11:55:28.934Z,68.7
2016-11-08T12:00:28.878Z,69.18
2016-11-08T12:05:28.825Z,69.56
2016-11-08T12:10:28.770Z,70.23
2016-11-08T12:15:28.707Z,70.52
2016-11-08T12:20:28.659Z,70.52
2016-11-08T12:25:28.302Z,70.75
2016-11-08T12:30:28.548Z,70.33
2016-11-08T12:35:28.491Z,70.43
2016-11-08T12:40:28.438Z,70.33
2016-11-08T12:45:28.378Z,69.66
2016-11-08T12:50:28.322Z,69.46
2016-11-08T12:55:28.261Z,69.75
2016-11-08T13:00:28.207Z,69.66
2016-11-08T13:05:28.157Z,69.46
2016-11-08T13:10:27.787Z,69.56
2016-11-08T13:15:28.036Z,69.56
2016-11-08T13:20:27.979Z,69.46
2016-11-08T13:25:27.613Z,69.37
2016-11-08T13:30:27.911Z,69.46
2016-11-08T13:35:27.807Z,69.46
2016-11-08T13:40:27.735Z,69.56
2016-11-08T13:45:27.688Z,69.75
2016-11-08T13:50:27.314Z,69.46
2016-11-08T13:55:27.560Z,69.37
2016-11-08T14:00:27.195Z,69.46
2016-11-08T14:05:27.439Z,69.46
2016-11-08T14:10:27.386Z,69.08
2016-11-08T14:15:27.320Z,69.66
2016-11-08T14:20:27.266Z,69.66
2016-11-08T14:25:27.208Z,69.08
2016-11-08T14:30:26.842Z,68.79
2016-11-08T14:35:27.087Z,69.08
2016-11-08T14:40:26.722Z,69.18
2016-11-08T14:45:26.964Z,68.79
2016-11-08T14:50:26.905Z,69.08
2016-11-08T14:55:26.554Z,68.76
2016-11-08T15:00:26.786Z,68.41
2016-11-08T15:05:26.722Z,68.6
2016-11-08T15:10:26.370Z,68.7
2016-11-08T15:15:26.647Z,68.7
2016-11-08T15:20:26.554Z,68.28
2016-11-08T15:25:26.483Z,68.21
2016-11-08T15:30:26.129Z,68.18
2016-11-08T15:35:26.367Z,68.57
2016-11-08T15:40:26.311Z,68.85
2016-11-08T15:45:26.251Z,68.37
2016-11-08T15:50:26.194Z,68.37
2016-11-08T15:55:26.130Z,68.6
2016-11-08T16:00:26.074Z,68.79
2016-11-08T16:05:26.025Z,68.51
2016-11-08T16:10:25.964Z,68.7
2016-11-08T16:15:25.904Z,69.05
2016-11-08T16:20:25.847Z,69.72
2016-11-08T16:25:25.475Z,69.72
2016-11-08T16:30:25.729Z,70.49
2016-11-08T16:35:25.668Z,71.25
2016-11-08T16:40:25.605Z,72.25
2016-11-08T16:45:25.549Z,72.64
2016-11-08T16:50:25.497Z,73.6
2016-11-08T16:55:25.444Z,73.98
2016-11-08T17:00:25.392Z,74.27
2016-11-08T17:05:25.334Z,74.3
2016-11-08T17:10:24.973Z,74.08
2016-11-08T17:15:25.222Z,74.3
2016-11-08T17:20:24.862Z,72.86
2016-11-08T17:25:25.120Z,73.06
2016-11-08T17:30:25.069Z,72.29
2016-11-08T17:35:24.707Z,72.86
2016-11-08T17:40:24.973Z,72.58
2016-11-08T17:45:24.915Z,73.25
2016-11-08T17:50:25.862Z,72.58
2016-11-08T17:55:24.823Z,72.03
2016-11-08T18:00:24.781Z,71.84
2016-11-08T18:05:24.439Z,72.32
2016-11-08T18:10:24.663Z,72.58
2016-11-08T18:15:24.612Z,71.42
2016-11-08T18:20:24.267Z,70.94
2016-11-08T18:25:24.505Z,71.04
2016-11-08T18:30:24.156Z,70.3
2016-11-08T18:35:24.405Z,70.4
2016-11-08T18:40:24.388Z,69.76
2016-11-08T18:45:24.004Z,69.85
2016-11-08T18:50:24.262Z,69.85
2016-11-08T18:55:23.912Z,68.9
2016-11-08T19:00:23.860Z,69.57
2016-11-08T19:05:24.114Z,70.05
2016-11-08T19:10:24.068Z,70.62
2016-11-08T19:15:24.018Z,70.15
2016-11-08T19:20:23.664Z,70.15
2016-11-08T19:25:23.926Z,70.43
2016-11-08T19:30:23.873Z,71.2
2016-11-08T19:35:23.825Z,70.62
2016-11-08T19:40:23.800Z,69.67
2016-11-08T19:45:23.426Z,70.62
2016-11-08T19:50:23.680Z,71.14
2016-11-08T19:55:23.628Z,70.47
2016-11-08T20:00:23.583Z,70.47
2016-11-08T20:05:23.530Z,70.47
2016-11-08T20:10:23.496Z,70.76
2016-11-08T20:15:23.436Z,70.62
2016-11-08T20:20:23.089Z,71.01
2016-11-08T20:25:23.345Z,70.92
2016-11-08T20:30:23.299Z,70.66
2016-11-08T20:35:22.937Z,70.72
2016-11-08T20:40:23.198Z,70.72
2016-11-08T20:45:23.149Z,70.72
2016-11-08T20:50:23.095Z,70.15
2016-11-08T20:55:23.048Z,69.67
2016-11-08T21:00:22.696Z,69.85
2016-11-08T21:05:22.958Z,69.57
2016-11-08T21:10:22.907Z,68.8
2016-11-08T21:15:22.858Z,69.38
2016-11-08T21:20:22.810Z,69.67
2016-11-08T21:25:22.449Z,69.67
2016-11-08T21:30:22.709Z,70.05
2016-11-08T21:35:22.659Z,69.28
2016-11-08T21:40:22.609Z,69.09
2016-11-08T21:45:22.578Z,68.9
2016-11-08T21:50:22.512Z,68.8
2016-11-08T21:55:22.463Z,68.99
2016-11-08T22:00:22.435Z,69.38
2016-11-08T22:05:22.061Z,69.09
2016-11-08T22:10:22.009Z,68.99
2016-11-08T22:15:22.274Z,68.8
2016-11-08T22:20:22.217Z,69.18
2016-11-08T22:25:22.172Z,69.76
2016-11-08T22:30:21.812Z,69.85
2016-11-08T22:35:22.065Z,69.63
2016-11-08T22:40:22.020Z,69.44
2016-11-08T22:45:21.662Z,69.73
2016-11-08T22:50:21.945Z,69.34
2016-11-08T22:55:21.863Z,69.69
2016-11-08T23:00:21.508Z,69.69
2016-11-08T23:05:21.763Z,69.31
2016-11-08T23:10:21.706Z,69.5
2016-11-08T23:15:21.656Z,69.6
2016-11-08T23:20:21.604Z,69.89
2016-11-08T23:25:21.549Z,69.66
2016-11-08T23:30:21.500Z,69.85
2016-11-08T23:35:21.444Z,69.85
2016-11-08T23:40:21.090Z,70.52
2016-11-08T23:45:21.340Z,70.52
2016-11-08T23:50:21.289Z,70.52
2016-11-08T23:55:21.229Z,70.52
